sensor_id;sensor_type;location;lat;lon;timestamp;temperature;humidity
35457;DHT22;21575;51.538;-0.084;2022-08-06T00:01:52;16.00;99.90
35457;DHT22;21575;51.538;-0.084;2022-08-06T00:04:19;16.00;99.90
35457;DHT22;21575;51.538;-0.084;2022-08-06T00:06:45;16.00;99.90
35457;DHT22;21575;51.538;-0.084;2022-08-06T00:09:11;16.00;99.90
35457;DHT22;21575;51.538;-0.084;2022-08-06T00:11:38;15.90;99.90
35457;DHT22;21575;51.538;-0.084;2022-08-06T00:14:04;15.90;99.90
35457;DHT22;21575;51.538;-0.084;2022-08-06T00:16:29;15.80;99.90
35457;DHT22;21575;51.538;-0.084;2022-08-06T00:18:55;15.80;99.90
35457;DHT22;21575;51.538;-0.084;2022-08-06T00:21:21;15.80;99.90
35457;DHT22;21575;51.538;-0.084;2022-08-06T00:23:46;15.80;99.90
35457;DHT22;21575;51.538;-0.084;2022-08-06T00:26:12;15.80;99.90
35457;DHT22;21575;51.538;-0.084;2022-08-06T00:28:38;15.70;99.90
35457;DHT22;21575;51.538;-0.084;2022-08-06T00:31:04;15.80;99.90
35457;DHT22;21575;51.538;-0.084;2022-08-06T00:33:30;15.80;99.90
35457;DHT22;21575;51.538;-0.084;2022-08-06T00:35:56;15.70;99.90
35457;DHT22;21575;51.538;-0.084;2022-08-06T00:38:21;15.70;99.90
35457;DHT22;21575;51.538;-0.084;2022-08-06T00:40:48;15.60;99.90
35457;DHT22;21575;51.538;-0.084;2022-08-06T00:43:14;15.60;99.90
35457;DHT22;21575;51.538;-0.084;2022-08-06T00:45:40;15.50;99.90
35457;DHT22;21575;51.538;-0.084;2022-08-06T00:48:05;15.50;99.90
35457;DHT22;21575;51.538;-0.084;2022-08-06T00:50:31;15.50;99.90
35457;DHT22;21575;51.538;-0.084;2022-08-06T00:53:00;15.40;99.90
35457;DHT22;21575;51.538;-0.084;2022-08-06T00:55:26;15.50;99.90
35457;DHT22;21575;51.538;-0.084;2022-08-06T00:57:52;15.40;99.90
35457;DHT22;21575;51.538;-0.084;2022-08-06T01:00:18;15.40;99.90
35457;DHT22;21575;51.538;-0.084;2022-08-06T01:02:44;15.30;99.90
35457;DHT22;21575;51.538;-0.084;2022-08-06T01:05:09;15.30;99.90
35457;DHT22;21575;51.538;-0.084;2022-08-06T01:07:35;15.30;99.90
35457;DHT22;21575;51.538;-0.084;2022-08-06T01:10:01;15.20;99.90
35457;DHT22;21575;51.538;-0.084;2022-08-06T01:12:27;15.20;99.90
35457;DHT22;21575;51.538;-0.084;2022-08-06T01:14:53;15.20;99.90
35457;DHT22;21575;51.538;-0.084;2022-08-06T01:31:24;14.90;99.90
35457;DHT22;21575;51.538;-0.084;2022-08-06T01:33:54;14.90;99.90
35457;DHT22;21575;51.538;-0.084;2022-08-06T01:36:37;14.90;99.90
35457;DHT22;21575;51.538;-0.084;2022-08-06T01:39:04;14.90;99.90
35457;DHT22;21575;51.538;-0.084;2022-08-06T01:41:39;14.80;99.90
35457;DHT22;21575;51.538;-0.084;2022-08-06T01:44:07;14.80;99.90
35457;DHT22;21575;51.538;-0.084;2022-08-06T01:46:36;14.80;99.90
35457;DHT22;21575;51.538;-0.084;2022-08-06T01:49:04;14.70;99.90
35457;DHT22;21575;51.538;-0.084;2022-08-06T01:51:31;14.70;99.90
35457;DHT22;21575;51.538;-0.084;2022-08-06T01:53:59;14.70;99.90
35457;DHT22;21575;51.538;-0.084;2022-08-06T01:56:26;14.70;99.90
35457;DHT22;21575;51.538;-0.084;2022-08-06T01:58:54;14.70;99.90
35457;DHT22;21575;51.538;-0.084;2022-08-06T02:01:22;14.60;99.90
35457;DHT22;21575;51.538;-0.084;2022-08-06T02:03:54;14.60;99.90
35457;DHT22;21575;51.538;-0.084;2022-08-06T02:06:25;14.60;99.90
35457;DHT22;21575;51.538;-0.084;2022-08-06T02:08:53;14.50;99.90
35457;DHT22;21575;51.538;-0.084;2022-08-06T02:11:20;14.50;99.90
35457;DHT22;21575;51.538;-0.084;2022-08-06T02:13:46;14.50;99.90
35457;DHT22;21575;51.538;-0.084;2022-08-06T02:16:14;14.50;99.90
35457;DHT22;21575;51.538;-0.084;2022-08-06T02:18:44;14.50;99.90
35457;DHT22;21575;51.538;-0.084;2022-08-06T02:21:17;14.50;99.90
35457;DHT22;21575;51.538;-0.084;2022-08-06T02:23:44;14.40;99.90
35457;DHT22;21575;51.538;-0.084;2022-08-06T02:26:10;14.40;99.90
35457;DHT22;21575;51.538;-0.084;2022-08-06T02:28:38;14.30;99.90
35457;DHT22;21575;51.538;-0.084;2022-08-06T02:31:04;14.30;99.90
35457;DHT22;21575;51.538;-0.084;2022-08-06T02:33:30;14.30;99.90
35457;DHT22;21575;51.538;-0.084;2022-08-06T02:38:40;14.30;99.90
35457;DHT22;21575;51.538;-0.084;2022-08-06T02:41:20;14.20;99.90
35457;DHT22;21575;51.538;-0.084;2022-08-06T02:43:55;14.10;99.90
35457;DHT22;21575;51.538;-0.084;2022-08-06T02:46:26;14.10;99.90
35457;DHT22;21575;51.538;-0.084;2022-08-06T02:48:58;14.10;99.90
35457;DHT22;21575;51.538;-0.084;2022-08-06T02:51:32;14.00;99.90
35457;DHT22;21575;51.538;-0.084;2022-08-06T02:54:04;14.00;99.90
35457;DHT22;21575;51.538;-0.084;2022-08-06T02:56:31;13.90;99.90
35457;DHT22;21575;51.538;-0.084;2022-08-06T02:59:01;13.90;99.90
35457;DHT22;21575;51.538;-0.084;2022-08-06T03:01:33;13.90;99.90
35457;DHT22;21575;51.538;-0.084;2022-08-06T03:04:01;13.80;99.90
35457;DHT22;21575;51.538;-0.084;2022-08-06T03:06:30;13.80;99.90
35457;DHT22;21575;51.538;-0.084;2022-08-06T03:08:58;13.70;99.90
35457;DHT22;21575;51.538;-0.084;2022-08-06T03:11:26;13.80;99.90
35457;DHT22;21575;51.538;-0.084;2022-08-06T03:13:55;13.70;99.90
35457;DHT22;21575;51.538;-0.084;2022-08-06T03:16:22;13.60;99.90
35457;DHT22;21575;51.538;-0.084;2022-08-06T03:18:50;13.60;99.90
35457;DHT22;21575;51.538;-0.084;2022-08-06T03:21:20;13.60;99.90
35457;DHT22;21575;51.538;-0.084;2022-08-06T03:23:47;13.60;99.90
35457;DHT22;21575;51.538;-0.084;2022-08-06T03:26:14;13.60;99.90
35457;DHT22;21575;51.538;-0.084;2022-08-06T03:28:40;13.60;99.90
35457;DHT22;21575;51.538;-0.084;2022-08-06T03:31:06;13.60;99.90
35457;DHT22;21575;51.538;-0.084;2022-08-06T03:33:33;13.50;99.90
35457;DHT22;21575;51.538;-0.084;2022-08-06T03:36:00;13.50;99.90
35457;DHT22;21575;51.538;-0.084;2022-08-06T03:38:31;13.50;99.90
35457;DHT22;21575;51.538;-0.084;2022-08-06T03:40:59;13.40;99.90
35457;DHT22;21575;51.538;-0.084;2022-08-06T03:43:25;13.40;99.90
35457;DHT22;21575;51.538;-0.084;2022-08-06T03:45:53;13.40;99.90
35457;DHT22;21575;51.538;-0.084;2022-08-06T03:48:25;13.40;99.90
35457;DHT22;21575;51.538;-0.084;2022-08-06T03:50:53;13.30;99.90
35457;DHT22;21575;51.538;-0.084;2022-08-06T03:53:23;13.30;99.90
35457;DHT22;21575;51.538;-0.084;2022-08-06T03:55:50;13.30;99.90
35457;DHT22;21575;51.538;-0.084;2022-08-06T03:58:19;13.30;99.90
35457;DHT22;21575;51.538;-0.084;2022-08-06T04:01:08;13.20;99.90
35457;DHT22;21575;51.538;-0.084;2022-08-06T04:03:35;13.20;99.90
35457;DHT22;21575;51.538;-0.084;2022-08-06T04:06:02;13.20;99.90
35457;DHT22;21575;51.538;-0.084;2022-08-06T04:08:29;13.20;99.90
35457;DHT22;21575;51.538;-0.084;2022-08-06T04:10:55;13.10;99.90
35457;DHT22;21575;51.538;-0.084;2022-08-06T04:13:23;13.10;99.90
35457;DHT22;21575;51.538;-0.084;2022-08-06T04:15:51;13.10;99.90
35457;DHT22;21575;51.538;-0.084;2022-08-06T04:18:21;13.10;99.90
35457;DHT22;21575;51.538;-0.084;2022-08-06T04:20:50;13.10;99.90
35457;DHT22;21575;51.538;-0.084;2022-08-06T04:23:16;13.10;99.90
35457;DHT22;21575;51.538;-0.084;2022-08-06T04:25:49;13.10;99.90
35457;DHT22;21575;51.538;-0.084;2022-08-06T04:28:16;13.10;99.90
35457;DHT22;21575;51.538;-0.084;2022-08-06T04:30:43;13.10;99.90
35457;DHT22;21575;51.538;-0.084;2022-08-06T04:33:12;13.10;99.90
35457;DHT22;21575;51.538;-0.084;2022-08-06T04:35:41;13.10;99.90
35457;DHT22;21575;51.538;-0.084;2022-08-06T04:38:08;13.10;99.90
35457;DHT22;21575;51.538;-0.084;2022-08-06T04:40:36;13.10;99.90
35457;DHT22;21575;51.538;-0.084;2022-08-06T04:43:05;13.10;99.90
35457;DHT22;21575;51.538;-0.084;2022-08-06T04:45:31;13.10;99.90
35457;DHT22;21575;51.538;-0.084;2022-08-06T04:47:58;13.10;99.90
35457;DHT22;21575;51.538;-0.084;2022-08-06T04:50:24;13.10;99.90
35457;DHT22;21575;51.538;-0.084;2022-08-06T04:52:50;13.10;99.90
35457;DHT22;21575;51.538;-0.084;2022-08-06T04:55:22;13.10;99.90
35457;DHT22;21575;51.538;-0.084;2022-08-06T04:57:47;13.00;99.90
35457;DHT22;21575;51.538;-0.084;2022-08-06T05:00:13;13.00;99.90
35457;DHT22;21575;51.538;-0.084;2022-08-06T05:02:39;13.00;99.90
35457;DHT22;21575;51.538;-0.084;2022-08-06T05:05:07;13.00;99.90
35457;DHT22;21575;51.538;-0.084;2022-08-06T05:07:35;13.00;99.90
35457;DHT22;21575;51.538;-0.084;2022-08-06T05:10:02;13.10;99.90
35457;DHT22;21575;51.538;-0.084;2022-08-06T05:12:48;13.00;99.90
35457;DHT22;21575;51.538;-0.084;2022-08-06T05:15:37;13.10;99.90
35457;DHT22;21575;51.538;-0.084;2022-08-06T05:18:10;13.10;99.90
35457;DHT22;21575;51.538;-0.084;2022-08-06T05:20:39;13.00;99.90
35457;DHT22;21575;51.538;-0.084;2022-08-06T05:23:18;13.00;99.90
35457;DHT22;21575;51.538;-0.084;2022-08-06T05:25:46;13.10;99.90
35457;DHT22;21575;51.538;-0.084;2022-08-06T05:28:12;13.10;99.90
35457;DHT22;21575;51.538;-0.084;2022-08-06T05:30:43;13.10;99.90
35457;DHT22;21575;51.538;-0.084;2022-08-06T05:33:08;13.10;99.90
35457;DHT22;21575;51.538;-0.084;2022-08-06T05:35:34;13.10;99.90
35457;DHT22;21575;51.538;-0.084;2022-08-06T05:38:00;13.20;99.90
35457;DHT22;21575;51.538;-0.084;2022-08-06T05:40:26;13.20;99.90
35457;DHT22;21575;51.538;-0.084;2022-08-06T05:42:59;13.20;99.90
35457;DHT22;21575;51.538;-0.084;2022-08-06T05:45:26;13.30;99.90
35457;DHT22;21575;51.538;-0.084;2022-08-06T05:47:53;13.30;99.90
35457;DHT22;21575;51.538;-0.084;2022-08-06T05:50:28;13.30;99.90
35457;DHT22;21575;51.538;-0.084;2022-08-06T05:52:58;13.40;99.90
35457;DHT22;21575;51.538;-0.084;2022-08-06T05:55:31;13.50;99.90
35457;DHT22;21575;51.538;-0.084;2022-08-06T05:58:06;13.60;99.90
35457;DHT22;21575;51.538;-0.084;2022-08-06T06:00:34;13.60;99.90
35457;DHT22;21575;51.538;-0.084;2022-08-06T06:03:03;13.70;99.90
35457;DHT22;21575;51.538;-0.084;2022-08-06T06:05:30;13.80;99.90
35457;DHT22;21575;51.538;-0.084;2022-08-06T06:07:57;13.80;99.90
35457;DHT22;21575;51.538;-0.084;2022-08-06T06:10:23;13.90;99.90
35457;DHT22;21575;51.538;-0.084;2022-08-06T06:12:49;13.90;99.90
35457;DHT22;21575;51.538;-0.084;2022-08-06T06:15:16;14.00;99.90
35457;DHT22;21575;51.538;-0.084;2022-08-06T06:23:20;14.20;99.90
35457;DHT22;21575;51.538;-0.084;2022-08-06T06:28:58;14.20;99.90
35457;DHT22;21575;51.538;-0.084;2022-08-06T06:31:37;14.20;99.90
35457;DHT22;21575;51.538;-0.084;2022-08-06T06:34:54;14.20;99.90
35457;DHT22;21575;51.538;-0.084;2022-08-06T06:37:20;14.20;99.90
35457;DHT22;21575;51.538;-0.084;2022-08-06T06:40:13;14.20;99.90
35457;DHT22;21575;51.538;-0.084;2022-08-06T06:42:46;14.30;99.90
35457;DHT22;21575;51.538;-0.084;2022-08-06T06:45:25;14.30;99.90
35457;DHT22;21575;51.538;-0.084;2022-08-06T06:50:37;14.50;99.90
35457;DHT22;21575;51.538;-0.084;2022-08-06T06:53:05;14.50;99.90
35457;DHT22;21575;51.538;-0.084;2022-08-06T06:58:23;14.60;99.90
35457;DHT22;21575;51.538;-0.084;2022-08-06T07:00:50;14.60;99.90
35457;DHT22;21575;51.538;-0.084;2022-08-06T07:03:18;14.70;99.90
35457;DHT22;21575;51.538;-0.084;2022-08-06T07:05:47;14.70;99.90
35457;DHT22;21575;51.538;-0.084;2022-08-06T07:08:16;14.80;99.90
35457;DHT22;21575;51.538;-0.084;2022-08-06T07:10:42;14.80;99.90
35457;DHT22;21575;51.538;-0.084;2022-08-06T07:13:10;14.90;99.90
35457;DHT22;21575;51.538;-0.084;2022-08-06T07:15:37;15.00;99.90
35457;DHT22;21575;51.538;-0.084;2022-08-06T07:18:04;15.10;99.90
35457;DHT22;21575;51.538;-0.084;2022-08-06T07:20:31;15.10;99.90
35457;DHT22;21575;51.538;-0.084;2022-08-06T07:23:00;15.20;99.90
35457;DHT22;21575;51.538;-0.084;2022-08-06T07:25:26;15.30;99.90
35457;DHT22;21575;51.538;-0.084;2022-08-06T07:27:52;15.40;99.90
35457;DHT22;21575;51.538;-0.084;2022-08-06T07:30:19;15.50;99.90
35457;DHT22;21575;51.538;-0.084;2022-08-06T07:32:46;15.60;99.90
35457;DHT22;21575;51.538;-0.084;2022-08-06T07:35:14;15.70;99.90
35457;DHT22;21575;51.538;-0.084;2022-08-06T07:37:53;15.70;99.90
35457;DHT22;21575;51.538;-0.084;2022-08-06T07:43:25;15.80;99.90
35457;DHT22;21575;51.538;-0.084;2022-08-06T07:45:54;15.90;99.90
35457;DHT22;21575;51.538;-0.084;2022-08-06T07:48:27;15.90;99.90
35457;DHT22;21575;51.538;-0.084;2022-08-06T07:50:54;16.00;99.90
35457;DHT22;21575;51.538;-0.084;2022-08-06T07:53:21;16.00;99.90
35457;DHT22;21575;51.538;-0.084;2022-08-06T07:55:47;16.00;99.90
35457;DHT22;21575;51.538;-0.084;2022-08-06T07:58:13;16.10;99.90
35457;DHT22;21575;51.538;-0.084;2022-08-06T08:00:40;16.10;99.90
35457;DHT22;21575;51.538;-0.084;2022-08-06T08:03:07;16.20;99.90
35457;DHT22;21575;51.538;-0.084;2022-08-06T08:05:53;16.20;99.90
35457;DHT22;21575;51.538;-0.084;2022-08-06T08:08:38;16.30;99.90
35457;DHT22;21575;51.538;-0.084;2022-08-06T08:11:05;16.30;99.90
35457;DHT22;21575;51.538;-0.084;2022-08-06T08:13:32;16.40;99.90
35457;DHT22;21575;51.538;-0.084;2022-08-06T08:16:00;16.50;99.90
35457;DHT22;21575;51.538;-0.084;2022-08-06T08:18:32;16.60;99.90
35457;DHT22;21575;51.538;-0.084;2022-08-06T08:21:02;16.70;99.90
35457;DHT22;21575;51.538;-0.084;2022-08-06T08:23:29;16.70;99.90
35457;DHT22;21575;51.538;-0.084;2022-08-06T08:25:59;16.70;99.90
35457;DHT22;21575;51.538;-0.084;2022-08-06T08:28:25;16.80;99.90
35457;DHT22;21575;51.538;-0.084;2022-08-06T08:30:51;16.80;99.90
35457;DHT22;21575;51.538;-0.084;2022-08-06T08:33:20;16.90;99.90
35457;DHT22;21575;51.538;-0.084;2022-08-06T08:35:47;16.90;99.90
35457;DHT22;21575;51.538;-0.084;2022-08-06T08:38:13;17.00;99.90
35457;DHT22;21575;51.538;-0.084;2022-08-06T08:40:39;17.10;99.90
35457;DHT22;21575;51.538;-0.084;2022-08-06T08:43:07;17.10;99.90
35457;DHT22;21575;51.538;-0.084;2022-08-06T08:45:34;17.10;99.90
35457;DHT22;21575;51.538;-0.084;2022-08-06T08:48:01;17.10;99.90
35457;DHT22;21575;51.538;-0.084;2022-08-06T08:50:30;17.10;99.90
35457;DHT22;21575;51.538;-0.084;2022-08-06T08:53:08;17.20;99.90
35457;DHT22;21575;51.538;-0.084;2022-08-06T08:55:34;17.20;99.90
35457;DHT22;21575;51.538;-0.084;2022-08-06T08:58:01;17.20;99.90
35457;DHT22;21575;51.538;-0.084;2022-08-06T09:00:27;17.30;99.90
35457;DHT22;21575;51.538;-0.084;2022-08-06T09:02:53;17.40;99.90
35457;DHT22;21575;51.538;-0.084;2022-08-06T09:05:20;17.50;99.90
35457;DHT22;21575;51.538;-0.084;2022-08-06T09:07:46;17.50;99.90
35457;DHT22;21575;51.538;-0.084;2022-08-06T09:10:12;17.60;99.90
35457;DHT22;21575;51.538;-0.084;2022-08-06T09:12:38;17.70;99.90
35457;DHT22;21575;51.538;-0.084;2022-08-06T09:15:04;17.80;99.90
35457;DHT22;21575;51.538;-0.084;2022-08-06T09:17:30;17.90;99.90
35457;DHT22;21575;51.538;-0.084;2022-08-06T09:19:56;17.90;99.90
35457;DHT22;21575;51.538;-0.084;2022-08-06T09:22:22;17.90;99.90
35457;DHT22;21575;51.538;-0.084;2022-08-06T09:24:48;18.10;99.90
35457;DHT22;21575;51.538;-0.084;2022-08-06T09:27:16;18.20;99.90
35457;DHT22;21575;51.538;-0.084;2022-08-06T09:29:57;18.30;99.90
35457;DHT22;21575;51.538;-0.084;2022-08-06T09:32:36;18.30;99.90
35457;DHT22;21575;51.538;-0.084;2022-08-06T09:35:14;18.30;99.90
35457;DHT22;21575;51.538;-0.084;2022-08-06T09:37:40;18.40;99.90
35457;DHT22;21575;51.538;-0.084;2022-08-06T09:40:17;18.40;99.90
35457;DHT22;21575;51.538;-0.084;2022-08-06T09:42:48;18.50;99.90
35457;DHT22;21575;51.538;-0.084;2022-08-06T09:45:16;18.50;99.90
35457;DHT22;21575;51.538;-0.084;2022-08-06T09:47:44;18.60;99.90
35457;DHT22;21575;51.538;-0.084;2022-08-06T09:50:09;18.60;99.90
35457;DHT22;21575;51.538;-0.084;2022-08-06T09:52:35;18.70;99.90
35457;DHT22;21575;51.538;-0.084;2022-08-06T09:55:01;18.70;99.90
35457;DHT22;21575;51.538;-0.084;2022-08-06T09:57:44;18.80;99.90
35457;DHT22;21575;51.538;-0.084;2022-08-06T10:00:10;18.90;99.90
35457;DHT22;21575;51.538;-0.084;2022-08-06T10:02:37;19.00;99.90
35457;DHT22;21575;51.538;-0.084;2022-08-06T10:05:11;19.10;99.90
35457;DHT22;21575;51.538;-0.084;2022-08-06T10:07:37;19.10;99.90
35457;DHT22;21575;51.538;-0.084;2022-08-06T10:10:04;19.20;99.90
35457;DHT22;21575;51.538;-0.084;2022-08-06T10:12:30;19.30;99.90
35457;DHT22;21575;51.538;-0.084;2022-08-06T10:14:58;19.30;99.90
35457;DHT22;21575;51.538;-0.084;2022-08-06T10:17:25;19.50;99.90
35457;DHT22;21575;51.538;-0.084;2022-08-06T10:20:11;19.60;99.90
35457;DHT22;21575;51.538;-0.084;2022-08-06T10:22:53;19.60;99.90
35457;DHT22;21575;51.538;-0.084;2022-08-06T10:25:25;19.70;99.90
35457;DHT22;21575;51.538;-0.084;2022-08-06T10:27:54;19.80;99.90
35457;DHT22;21575;51.538;-0.084;2022-08-06T10:30:20;19.80;99.90
35457;DHT22;21575;51.538;-0.084;2022-08-06T10:35:17;19.80;99.90
35457;DHT22;21575;51.538;-0.084;2022-08-06T10:37:47;19.80;99.90
35457;DHT22;21575;51.538;-0.084;2022-08-06T10:40:15;19.90;99.90
35457;DHT22;21575;51.538;-0.084;2022-08-06T10:42:42;19.90;99.90
35457;DHT22;21575;51.538;-0.084;2022-08-06T10:45:09;20.00;99.90
35457;DHT22;21575;51.538;-0.084;2022-08-06T10:47:35;20.00;99.90
35457;DHT22;21575;51.538;-0.084;2022-08-06T10:50:02;20.00;99.90
35457;DHT22;21575;51.538;-0.084;2022-08-06T10:52:28;20.00;99.90
35457;DHT22;21575;51.538;-0.084;2022-08-06T10:54:55;19.90;99.90
35457;DHT22;21575;51.538;-0.084;2022-08-06T10:57:22;20.00;99.90
35457;DHT22;21575;51.538;-0.084;2022-08-06T10:59:47;20.00;99.90
35457;DHT22;21575;51.538;-0.084;2022-08-06T11:04:59;20.20;99.90
35457;DHT22;21575;51.538;-0.084;2022-08-06T11:15:57;20.60;99.90
35457;DHT22;21575;51.538;-0.084;2022-08-06T11:18:23;20.70;99.90
35457;DHT22;21575;51.538;-0.084;2022-08-06T11:20:49;20.80;99.90
35457;DHT22;21575;51.538;-0.084;2022-08-06T11:25:49;20.80;99.90
35457;DHT22;21575;51.538;-0.084;2022-08-06T11:28:20;20.90;99.90
35457;DHT22;21575;51.538;-0.084;2022-08-06T11:31:06;21.00;99.90
35457;DHT22;21575;51.538;-0.084;2022-08-06T11:36:00;21.00;99.90
35457;DHT22;21575;51.538;-0.084;2022-08-06T11:41:26;20.90;99.90
35457;DHT22;21575;51.538;-0.084;2022-08-06T11:46:24;21.00;99.90
35457;DHT22;21575;51.538;-0.084;2022-08-06T11:51:54;21.10;99.90
35457;DHT22;21575;51.538;-0.084;2022-08-06T11:59:28;21.50;99.90
35457;DHT22;21575;51.538;-0.084;2022-08-06T12:01:55;21.50;99.70
35457;DHT22;21575;51.538;-0.084;2022-08-06T12:07:21;21.60;99.80
35457;DHT22;21575;51.538;-0.084;2022-08-06T12:17:57;21.70;98.00
35457;DHT22;21575;51.538;-0.084;2022-08-06T12:20:30;21.60;97.50
35457;DHT22;21575;51.538;-0.084;2022-08-06T12:23:21;21.70;97.50
35457;DHT22;21575;51.538;-0.084;2022-08-06T12:25:44;21.80;96.90
35457;DHT22;21575;51.538;-0.084;2022-08-06T12:28:11;21.90;96.20
35457;DHT22;21575;51.538;-0.084;2022-08-06T12:30:48;21.90;96.00
35457;DHT22;21575;51.538;-0.084;2022-08-06T12:33:14;21.90;95.50
35457;DHT22;21575;51.538;-0.084;2022-08-06T12:36:01;21.80;96.70
35457;DHT22;21575;51.538;-0.084;2022-08-06T12:38:31;21.90;95.40
35457;DHT22;21575;51.538;-0.084;2022-08-06T12:40:58;21.90;95.20
35457;DHT22;21575;51.538;-0.084;2022-08-06T12:43:25;21.90;95.30
35457;DHT22;21575;51.538;-0.084;2022-08-06T12:45:59;22.10;95.90
35457;DHT22;21575;51.538;-0.084;2022-08-06T12:48:25;22.20;94.50
35457;DHT22;21575;51.538;-0.084;2022-08-06T12:51:01;22.20;94.80
35457;DHT22;21575;51.538;-0.084;2022-08-06T12:53:27;22.30;94.50
35457;DHT22;21575;51.538;-0.084;2022-08-06T12:55:54;22.30;95.20
35457;DHT22;21575;51.538;-0.084;2022-08-06T12:58:29;22.50;94.90
35457;DHT22;21575;51.538;-0.084;2022-08-06T13:00:57;22.60;94.60
35457;DHT22;21575;51.538;-0.084;2022-08-06T13:03:24;22.70;94.70
35457;DHT22;21575;51.538;-0.084;2022-08-06T13:05:52;22.60;94.10
35457;DHT22;21575;51.538;-0.084;2022-08-06T13:08:20;22.70;94.80
35457;DHT22;21575;51.538;-0.084;2022-08-06T13:10:50;22.70;94.60
35457;DHT22;21575;51.538;-0.084;2022-08-06T13:13:16;22.80;94.40
35457;DHT22;21575;51.538;-0.084;2022-08-06T13:15:42;22.90;94.10
35457;DHT22;21575;51.538;-0.084;2022-08-06T13:18:13;22.90;93.20
35457;DHT22;21575;51.538;-0.084;2022-08-06T13:20:44;22.90;93.10
35457;DHT22;21575;51.538;-0.084;2022-08-06T13:23:12;22.90;92.30
35457;DHT22;21575;51.538;-0.084;2022-08-06T13:28:12;22.70;92.20
35457;DHT22;21575;51.538;-0.084;2022-08-06T13:30:40;22.70;92.00
35457;DHT22;21575;51.538;-0.084;2022-08-06T13:33:19;22.70;92.10
35457;DHT22;21575;51.538;-0.084;2022-08-06T13:35:47;22.80;91.90
35457;DHT22;21575;51.538;-0.084;2022-08-06T13:38:29;23.00;91.80
35457;DHT22;21575;51.538;-0.084;2022-08-06T13:40:55;23.10;91.20
35457;DHT22;21575;51.538;-0.084;2022-08-06T13:43:37;23.20;91.10
35457;DHT22;21575;51.538;-0.084;2022-08-06T13:48:36;23.20;90.80
35457;DHT22;21575;51.538;-0.084;2022-08-06T13:51:02;23.10;90.50
35457;DHT22;21575;51.538;-0.084;2022-08-06T13:53:27;23.00;89.90
35457;DHT22;21575;51.538;-0.084;2022-08-06T13:55:53;22.90;90.40
35457;DHT22;21575;51.538;-0.084;2022-08-06T13:58:19;22.90;91.10
35457;DHT22;21575;51.538;-0.084;2022-08-06T14:00:44;22.80;91.40
35457;DHT22;21575;51.538;-0.084;2022-08-06T14:03:13;22.80;91.00
35457;DHT22;21575;51.538;-0.084;2022-08-06T14:05:38;22.80;91.00
35457;DHT22;21575;51.538;-0.084;2022-08-06T14:08:04;22.90;91.10
35457;DHT22;21575;51.538;-0.084;2022-08-06T14:10:30;23.00;91.00
35457;DHT22;21575;51.538;-0.084;2022-08-06T14:12:55;23.10;91.10
35457;DHT22;21575;51.538;-0.084;2022-08-06T14:15:39;23.00;91.00
35457;DHT22;21575;51.538;-0.084;2022-08-06T14:18:05;23.10;91.20
35457;DHT22;21575;51.538;-0.084;2022-08-06T14:20:31;23.20;91.10
35457;DHT22;21575;51.538;-0.084;2022-08-06T14:22:57;23.20;90.60
35457;DHT22;21575;51.538;-0.084;2022-08-06T14:25:23;23.10;90.50
35457;DHT22;21575;51.538;-0.084;2022-08-06T14:27:49;23.20;90.90
35457;DHT22;21575;51.538;-0.084;2022-08-06T14:30:16;23.20;90.50
35457;DHT22;21575;51.538;-0.084;2022-08-06T14:32:42;23.20;90.50
35457;DHT22;21575;51.538;-0.084;2022-08-06T14:35:09;23.20;90.30
35457;DHT22;21575;51.538;-0.084;2022-08-06T14:37:35;23.20;90.30
35457;DHT22;21575;51.538;-0.084;2022-08-06T14:40:00;23.20;89.40
35457;DHT22;21575;51.538;-0.084;2022-08-06T14:42:26;23.30;89.30
35457;DHT22;21575;51.538;-0.084;2022-08-06T14:45:11;23.20;90.00
35457;DHT22;21575;51.538;-0.084;2022-08-06T14:47:36;23.30;89.00
35457;DHT22;21575;51.538;-0.084;2022-08-06T14:50:03;23.20;88.50
35457;DHT22;21575;51.538;-0.084;2022-08-06T14:52:30;23.20;88.70
35457;DHT22;21575;51.538;-0.084;2022-08-06T14:54:55;23.20;89.20
35457;DHT22;21575;51.538;-0.084;2022-08-06T14:57:21;23.30;88.70
35457;DHT22;21575;51.538;-0.084;2022-08-06T14:59:47;23.40;88.80
35457;DHT22;21575;51.538;-0.084;2022-08-06T15:02:13;23.40;88.10
35457;DHT22;21575;51.538;-0.084;2022-08-06T15:04:39;23.40;88.80
35457;DHT22;21575;51.538;-0.084;2022-08-06T15:07:05;23.40;88.20
35457;DHT22;21575;51.538;-0.084;2022-08-06T15:09:32;23.40;87.70
35457;DHT22;21575;51.538;-0.084;2022-08-06T15:11:59;23.40;88.40
35457;DHT22;21575;51.538;-0.084;2022-08-06T15:14:25;23.40;88.20
35457;DHT22;21575;51.538;-0.084;2022-08-06T15:16:52;23.50;86.80
35457;DHT22;21575;51.538;-0.084;2022-08-06T15:19:18;23.50;86.40
35457;DHT22;21575;51.538;-0.084;2022-08-06T15:21:44;23.50;86.10
35457;DHT22;21575;51.538;-0.084;2022-08-06T15:24:10;23.50;85.00
35457;DHT22;21575;51.538;-0.084;2022-08-06T15:26:36;23.50;84.50
35457;DHT22;21575;51.538;-0.084;2022-08-06T15:29:01;23.40;84.10
35457;DHT22;21575;51.538;-0.084;2022-08-06T15:31:27;23.40;84.10
35457;DHT22;21575;51.538;-0.084;2022-08-06T15:33:53;23.40;83.80
35457;DHT22;21575;51.538;-0.084;2022-08-06T15:36:20;23.50;84.50
35457;DHT22;21575;51.538;-0.084;2022-08-06T15:38:45;23.50;84.00
35457;DHT22;21575;51.538;-0.084;2022-08-06T15:41:11;23.50;83.20
35457;DHT22;21575;51.538;-0.084;2022-08-06T15:43:37;23.50;82.20
35457;DHT22;21575;51.538;-0.084;2022-08-06T15:46:03;23.40;82.20
35457;DHT22;21575;51.538;-0.084;2022-08-06T15:48:29;23.40;82.90
35457;DHT22;21575;51.538;-0.084;2022-08-06T15:50:59;23.40;82.70
35457;DHT22;21575;51.538;-0.084;2022-08-06T15:53:25;23.30;82.40
35457;DHT22;21575;51.538;-0.084;2022-08-06T15:55:51;23.40;82.60
35457;DHT22;21575;51.538;-0.084;2022-08-06T15:58:17;23.40;82.20
35457;DHT22;21575;51.538;-0.084;2022-08-06T16:00:43;23.40;82.20
35457;DHT22;21575;51.538;-0.084;2022-08-06T16:03:12;23.40;81.50
35457;DHT22;21575;51.538;-0.084;2022-08-06T16:05:40;23.50;81.40
35457;DHT22;21575;51.538;-0.084;2022-08-06T16:08:07;23.50;82.10
35457;DHT22;21575;51.538;-0.084;2022-08-06T16:10:36;23.50;79.80
35457;DHT22;21575;51.538;-0.084;2022-08-06T16:13:02;23.50;79.90
35457;DHT22;21575;51.538;-0.084;2022-08-06T16:15:27;23.50;79.20
35457;DHT22;21575;51.538;-0.084;2022-08-06T16:17:53;23.40;78.70
35457;DHT22;21575;51.538;-0.084;2022-08-06T16:20:18;23.40;78.60
35457;DHT22;21575;51.538;-0.084;2022-08-06T16:22:44;23.30;78.70
35457;DHT22;21575;51.538;-0.084;2022-08-06T16:25:10;23.40;78.30
35457;DHT22;21575;51.538;-0.084;2022-08-06T16:27:38;23.40;78.10
35457;DHT22;21575;51.538;-0.084;2022-08-06T16:30:03;23.30;77.10
35457;DHT22;21575;51.538;-0.084;2022-08-06T16:32:29;23.40;77.80
35457;DHT22;21575;51.538;-0.084;2022-08-06T16:34:55;23.40;77.90
35457;DHT22;21575;51.538;-0.084;2022-08-06T16:37:25;23.40;78.00
35457;DHT22;21575;51.538;-0.084;2022-08-06T16:39:53;23.50;77.70
35457;DHT22;21575;51.538;-0.084;2022-08-06T16:42:18;23.50;78.00
35457;DHT22;21575;51.538;-0.084;2022-08-06T16:44:44;23.50;78.20
35457;DHT22;21575;51.538;-0.084;2022-08-06T16:47:10;23.50;77.30